KCAR/CAR METAR and TAF weather

Enter ICAO airport designator
Station Type Date Time Source
KCAR METAR 2019/12/05 14:54 UTC NOAA

KCAR 051454Z AUTO 00000KT 10SM CLR M06/M07 A2946 RMK AO2 SLP987 T10611072 51011


Station Type Date Time Source
KCAR Decoded METAR 2019/12/05 14:54 UTC NOAA

CARIBOU MUNICIPAL AIRPORT, ME, United States (KCAR) 46-52N 68-01W 191M
Dec 05, 2019 - 09:54 AM EST / 2019.12.05 1454 UTC
Wind: Calm:0
Visibility: 10 mile(s):0
Sky conditions: clear
Temperature: 21.0 F (-6.1 C)
Dew Point: 19.0 F (-7.2 C)
Relative Humidity: 91%
Pressure (altimeter): 29.46 in. Hg (997 hPa)
Pressure tendency: 0.03 inches (1.1 hPa) higher than three hours ago
ob: KCAR 051454Z AUTO 00000KT 10SM CLR M06/M07 A2946 RMK AO2 SLP987 T10611072 51011
cycle: 15

Station Type Date Time Source
KCAR TAF 2019/12/05 12:24 UTC NOAA

TAF KCAR 051120Z 0512/0612 27003KT P6SM OVC080
FM051800 29003KT P6SM VCSH BKN025 OVC040
FM060000 29008G16KT P6SM VCSH OVC025

Example: see airport list